createdAt,value
2018-07-01T00:01:59.610Z,55.60
2018-07-01T00:04:27.838Z,55.40
2018-07-01T00:06:56.065Z,56.10
2018-07-01T00:09:24.288Z,56.10
2018-07-01T00:11:52.478Z,56.20
2018-07-01T00:14:20.904Z,56.80
2018-07-01T00:16:49.138Z,56.70
2018-07-01T00:19:17.331Z,56.30
2018-07-01T00:21:45.589Z,56.70
2018-07-01T00:24:14.423Z,56.50
2018-07-01T00:26:42.697Z,57.30
2018-07-01T00:29:10.935Z,56.90
2018-07-01T00:31:39.181Z,57.10
2018-07-01T00:34:07.451Z,57.40
2018-07-01T00:36:35.702Z,57.40
2018-07-01T00:39:05.822Z,57.30
2018-07-01T00:41:34.079Z,57.80
2018-07-01T00:44:02.294Z,57.80
2018-07-01T00:48:58.495Z,58.80
2018-07-01T00:51:26.694Z,58.50
2018-07-01T00:53:54.910Z,58.80
2018-07-01T00:56:23.138Z,58.90
2018-07-01T00:58:51.404Z,58.80
2018-07-01T01:01:19.595Z,59.20
2018-07-01T01:03:47.806Z,59.40
2018-07-01T01:06:16.030Z,58.60
2018-07-01T01:08:44.238Z,59.50
2018-07-01T01:13:40.401Z,60.00
2018-07-01T01:16:08.698Z,60.10
2018-07-01T01:18:36.894Z,59.80
2018-07-01T01:21:05.947Z,60.90
2018-07-01T01:23:34.355Z,60.80
2018-07-01T01:26:02.600Z,60.10
2018-07-01T01:28:30.794Z,60.00
2018-07-01T01:30:58.999Z,60.70
2018-07-01T01:33:27.234Z,60.40
2018-07-01T01:35:55.506Z,60.50
2018-07-01T01:38:25.181Z,62.20
2018-07-01T01:40:59.050Z,60.90
2018-07-01T01:43:31.532Z,62.90
2018-07-01T01:46:09.211Z,62.00
2018-07-01T01:48:42.831Z,63.10
2018-07-01T01:51:47.342Z,63.10
2018-07-01T01:54:20.807Z,63.80
2018-07-01T02:00:26.683Z,64.70
2018-07-01T02:02:58.934Z,66.10
2018-07-01T02:05:37.782Z,65.70
2018-07-01T02:08:10.494Z,64.80
2018-07-01T02:10:38.698Z,64.90
2018-07-01T02:13:06.906Z,65.70
2018-07-01T02:15:38.798Z,65.50
2018-07-01T02:18:07.073Z,66.00
2018-07-01T02:20:37.479Z,65.80
2018-07-01T02:23:24.311Z,66.80
2018-07-01T02:25:52.527Z,66.50
2018-07-01T02:28:20.778Z,66.70
2018-07-01T02:30:48.996Z,66.60
2018-07-01T02:33:17.214Z,66.70
2018-07-01T02:35:45.422Z,67.50
2018-07-01T02:38:13.663Z,68.90
2018-07-01T02:40:41.866Z,68.50
2018-07-01T02:43:10.370Z,69.70
2018-07-01T02:45:38.629Z,70.20
2018-07-01T02:48:06.880Z,70.40
2018-07-01T02:50:35.187Z,71.80
2018-07-01T02:53:03.427Z,72.40
2018-07-01T02:55:31.622Z,72.50
2018-07-01T02:57:59.890Z,73.60
2018-07-01T03:00:28.139Z,74.00
2018-07-01T03:02:56.363Z,74.10
2018-07-01T03:05:24.894Z,74.40
2018-07-01T03:07:53.115Z,74.90
2018-07-01T03:10:21.343Z,74.20
2018-07-01T03:12:49.551Z,74.40
2018-07-01T03:15:17.747Z,75.30
2018-07-01T03:17:45.962Z,74.80
2018-07-01T03:20:14.168Z,75.50
2018-07-01T03:22:42.399Z,75.50
2018-07-01T03:25:10.618Z,75.70
2018-07-01T03:27:39.034Z,75.90
2018-07-01T03:30:07.270Z,76.00
2018-07-01T03:32:35.474Z,75.50
2018-07-01T03:35:03.762Z,74.90
2018-07-01T03:37:31.993Z,75.40
2018-07-01T03:40:00.222Z,75.90
2018-07-01T03:44:56.424Z,76.40
2018-07-01T03:47:24.610Z,76.30
2018-07-01T03:49:52.910Z,76.30
2018-07-01T03:52:21.154Z,77.40
2018-07-01T03:54:49.403Z,76.90
2018-07-01T03:57:17.606Z,77.00
2018-07-01T03:59:45.850Z,77.60
2018-07-01T04:02:14.062Z,77.20
2018-07-01T04:04:42.292Z,77.30
2018-07-01T04:07:10.519Z,77.80
2018-07-01T04:09:38.729Z,77.50
2018-07-01T04:12:06.954Z,77.30
2018-07-01T04:14:35.166Z,77.70
2018-07-01T04:17:03.408Z,78.60
2018-07-01T04:19:38.950Z,78.00
2018-07-01T04:22:08.391Z,78.10
2018-07-01T04:24:37.088Z,78.50
2018-07-01T04:27:05.331Z,79.50
2018-07-01T04:29:34.274Z,77.70
2018-07-01T04:34:30.437Z,76.70
2018-07-01T04:36:58.681Z,76.70
2018-07-01T04:39:26.861Z,76.40
2018-07-01T04:41:55.070Z,76.30
2018-07-01T04:44:23.315Z,77.00
2018-07-01T04:49:19.539Z,76.90
2018-07-01T04:51:47.713Z,73.40
2018-07-01T04:54:16.055Z,70.30
2018-07-01T04:56:44.315Z,69.20
2018-07-01T04:59:12.528Z,69.50
2018-07-01T05:01:40.725Z,70.10
2018-07-01T05:06:36.923Z,70.70
2018-07-01T05:09:08.208Z,71.80
2018-07-01T05:11:36.407Z,71.30
2018-07-01T05:16:33.142Z,70.20
2018-07-01T05:21:29.305Z,69.20
2018-07-01T05:26:25.446Z,64.60
2018-07-01T05:28:53.753Z,63.40
2018-07-01T05:31:21.955Z,62.60
2018-07-01T05:33:50.303Z,62.00
2018-07-01T05:36:18.417Z,61.30
2018-07-01T05:38:46.878Z,61.00
2018-07-01T05:41:15.082Z,60.40
2018-07-01T05:43:43.324Z,60.00
2018-07-01T05:46:11.520Z,60.20
2018-07-01T05:48:39.742Z,59.80
2018-07-01T05:51:07.964Z,59.90
2018-07-01T05:53:36.207Z,59.30
2018-07-01T05:56:04.398Z,59.20
2018-07-01T05:58:32.603Z,59.10
2018-07-01T06:01:00.988Z,58.90
2018-07-01T06:03:29.182Z,58.40
2018-07-01T06:05:57.410Z,57.90
2018-07-01T06:08:25.707Z,58.70
2018-07-01T06:10:53.942Z,58.50
2018-07-01T06:13:22.175Z,58.30
2018-07-01T06:18:18.405Z,57.70
2018-07-01T06:20:46.664Z,57.40
2018-07-01T06:23:15.153Z,57.10
2018-07-01T06:25:43.346Z,56.80
2018-07-01T06:28:11.582Z,56.40
2018-07-01T06:30:39.791Z,55.50
2018-07-01T06:33:08.031Z,56.20
2018-07-01T06:35:36.251Z,56.60
2018-07-01T06:38:04.453Z,55.90
2018-07-01T06:40:32.715Z,55.90
2018-07-01T06:43:00.915Z,56.70
2018-07-01T06:45:29.358Z,56.30
2018-07-01T06:47:57.602Z,55.90
2018-07-01T06:50:25.802Z,55.90
2018-07-01T06:52:54.056Z,55.20
2018-07-01T06:55:22.298Z,53.60
2018-07-01T06:57:50.526Z,53.00
2018-07-01T07:00:18.719Z,52.90
2018-07-01T07:02:46.930Z,53.10
2018-07-01T07:05:15.144Z,51.70
2018-07-01T07:07:43.437Z,52.00
2018-07-01T07:10:11.587Z,51.70
2018-07-01T07:12:39.777Z,52.20
2018-07-01T07:15:08.021Z,51.80
2018-07-01T07:17:36.211Z,51.40
2018-07-01T07:20:04.483Z,51.70
2018-07-01T07:22:32.739Z,51.20
2018-07-01T07:25:00.942Z,51.00
2018-07-01T07:27:29.155Z,50.20
2018-07-01T07:29:57.377Z,50.30
2018-07-01T07:32:25.603Z,50.10
2018-07-01T07:34:53.797Z,50.50
2018-07-01T07:37:22.023Z,50.80
2018-07-01T07:39:50.227Z,49.60
2018-07-01T07:42:18.439Z,48.50
2018-07-01T07:44:46.649Z,48.40
2018-07-01T07:47:14.889Z,48.00
2018-07-01T07:49:43.097Z,48.30
2018-07-01T07:52:11.599Z,48.40
2018-07-01T07:54:39.745Z,48.10
2018-07-01T07:57:08.243Z,47.60
2018-07-01T08:02:04.491Z,47.30
2018-07-01T08:04:32.658Z,47.00
2018-07-01T08:07:00.911Z,46.60
2018-07-01T08:09:29.110Z,47.10
2018-07-01T08:11:57.310Z,46.60
2018-07-01T08:14:25.759Z,46.50
2018-07-01T08:16:53.988Z,47.30
2018-07-01T08:19:22.190Z,47.30
2018-07-01T08:21:50.393Z,47.20
2018-07-01T08:24:18.664Z,45.90
2018-07-01T08:26:46.875Z,46.50
2018-07-01T08:29:15.102Z,46.30
2018-07-01T08:31:43.272Z,46.50
2018-07-01T08:34:11.467Z,46.90
2018-07-01T08:39:09.254Z,46.30
2018-07-01T08:42:47.992Z,46.10
2018-07-01T08:45:16.195Z,46.20
2018-07-01T08:47:44.403Z,44.90
2018-07-01T08:50:12.624Z,44.50
2018-07-01T08:52:40.907Z,44.00
2018-07-01T08:55:09.062Z,44.60
2018-07-01T08:57:37.283Z,44.10
2018-07-01T09:00:06.728Z,43.90
2018-07-01T09:02:35.058Z,43.80
2018-07-01T09:05:03.398Z,43.10
2018-07-01T09:07:31.610Z,43.60
2018-07-01T09:10:00.043Z,43.80
2018-07-01T09:14:56.211Z,42.90
2018-07-01T09:17:24.421Z,43.50
2018-07-01T09:19:52.720Z,43.30
2018-07-01T09:22:20.949Z,43.70
2018-07-01T09:24:49.174Z,44.70
2018-07-01T09:27:17.395Z,44.80
2018-07-01T09:29:50.800Z,43.20
2018-07-01T09:32:19.010Z,43.20
2018-07-01T09:34:47.328Z,43.60
2018-07-01T09:37:15.431Z,44.40
2018-07-01T09:39:43.658Z,44.20
2018-07-01T09:44:39.835Z,44.40
2018-07-01T09:47:08.108Z,42.70
2018-07-01T09:49:36.367Z,42.90
2018-07-01T09:52:04.626Z,42.70
2018-07-01T09:54:32.838Z,42.90
2018-07-01T09:57:01.050Z,42.80
2018-07-01T09:59:29.266Z,41.90
2018-07-01T10:01:57.458Z,41.90
2018-07-01T10:04:25.696Z,41.60
2018-07-01T10:06:53.926Z,40.80
2018-07-01T10:09:22.126Z,40.40
2018-07-01T10:11:50.420Z,41.60
2018-07-01T10:14:18.565Z,41.80
2018-07-01T10:16:46.784Z,41.80
2018-07-01T10:19:14.978Z,42.10
2018-07-01T10:21:43.180Z,41.30
2018-07-01T10:24:11.385Z,40.70
2018-07-01T10:26:39.702Z,41.10
2018-07-01T10:29:10.099Z,40.80
2018-07-01T10:31:38.994Z,40.10
2018-07-01T10:34:08.090Z,40.30
2018-07-01T10:36:36.326Z,40.40
2018-07-01T10:39:08.662Z,40.90
2018-07-01T10:41:36.919Z,40.60
2018-07-01T10:44:05.153Z,40.40
2018-07-01T10:46:33.383Z,38.00
2018-07-01T10:49:01.622Z,39.20
2018-07-01T10:51:29.863Z,39.50
2018-07-01T10:53:58.086Z,39.20
2018-07-01T10:56:26.311Z,39.30
2018-07-01T10:58:54.566Z,39.80
2018-07-01T11:01:22.887Z,39.20
2018-07-01T11:03:51.086Z,38.50
2018-07-01T11:06:19.475Z,38.70
2018-07-01T11:08:47.488Z,39.20
2018-07-01T11:11:15.700Z,38.30
2018-07-01T11:13:43.928Z,38.00
2018-07-01T11:16:12.162Z,37.60
2018-07-01T11:18:40.422Z,36.20
2018-07-01T11:21:08.668Z,34.40
2018-07-01T11:23:36.859Z,33.90
2018-07-01T11:26:05.423Z,34.00
2018-07-01T11:28:33.631Z,33.20
2018-07-01T11:31:01.904Z,32.80
2018-07-01T11:33:30.047Z,32.30
2018-07-01T11:35:58.342Z,32.40
2018-07-01T11:38:26.534Z,29.30
2018-07-01T11:40:54.762Z,27.20
2018-07-01T11:43:22.982Z,25.50
2018-07-01T11:45:51.202Z,24.80
2018-07-01T11:48:19.416Z,23.50
2018-07-01T11:50:47.614Z,22.30
2018-07-01T11:53:15.878Z,22.90
2018-07-01T11:55:44.083Z,22.10
2018-07-01T11:58:12.346Z,22.00
2018-07-01T12:00:40.502Z,21.90
2018-07-01T12:03:08.708Z,22.40
2018-07-01T12:08:05.200Z,22.00
2018-07-01T12:10:33.415Z,20.60
2018-07-01T12:13:01.619Z,20.60
2018-07-01T12:17:57.868Z,17.70
2018-07-01T12:20:26.107Z,17.00
2018-07-01T12:22:54.295Z,16.70
2018-07-01T12:25:22.530Z,17.10
2018-07-01T12:27:50.742Z,17.00
2018-07-01T12:30:18.955Z,15.60
2018-07-01T12:32:47.166Z,15.40
2018-07-01T12:35:15.382Z,15.30
2018-07-01T12:37:43.594Z,15.50
2018-07-01T12:40:11.794Z,16.00
2018-07-01T12:42:40.020Z,15.30
2018-07-01T12:45:08.230Z,15.50
2018-07-01T12:47:36.439Z,15.20
2018-07-01T12:50:04.914Z,15.90
2018-07-01T12:52:33.151Z,15.00
2018-07-01T12:55:01.384Z,14.80
2018-07-01T12:57:29.638Z,14.80
2018-07-01T12:59:57.857Z,14.40
2018-07-01T13:02:26.116Z,14.30
2018-07-01T13:04:54.326Z,14.00
2018-07-01T13:07:22.581Z,13.90
2018-07-01T13:12:18.770Z,13.80
2018-07-01T13:14:46.999Z,13.70
2018-07-01T13:17:15.230Z,13.60
2018-07-01T13:19:44.238Z,13.60
2018-07-01T13:22:12.467Z,13.70
2018-07-01T13:24:40.676Z,13.00
2018-07-01T13:27:08.902Z,13.30
2018-07-01T13:29:37.124Z,13.10
2018-07-01T13:32:05.401Z,13.00
2018-07-01T13:34:33.650Z,12.70
2018-07-01T13:37:01.874Z,12.80
2018-07-01T13:41:58.119Z,13.10
2018-07-01T13:44:26.345Z,12.80
2018-07-01T13:46:54.566Z,12.60
2018-07-01T13:49:22.888Z,12.50
2018-07-01T13:51:51.056Z,12.60
2018-07-01T13:54:19.300Z,12.90
2018-07-01T13:59:15.486Z,13.70
2018-07-01T14:01:43.731Z,13.10
2018-07-01T14:04:11.929Z,12.50
2018-07-01T14:09:09.391Z,12.30
2018-07-01T14:11:38.162Z,12.50
2018-07-01T14:14:06.430Z,12.20
2018-07-01T14:16:34.598Z,12.20
2018-07-01T14:19:02.807Z,12.00
2018-07-01T14:21:31.358Z,12.20
2018-07-01T14:23:59.602Z,12.30
2018-07-01T14:26:28.015Z,12.30
2018-07-01T14:28:56.214Z,12.10
2018-07-01T14:31:24.478Z,12.20
2018-07-01T14:33:52.718Z,12.20
2018-07-01T14:36:20.961Z,11.90
2018-07-01T14:38:49.170Z,12.00
2018-07-01T14:41:17.398Z,12.00
2018-07-01T14:43:45.614Z,11.80
2018-07-01T14:46:13.834Z,11.80
2018-07-01T14:48:42.174Z,11.70
2018-07-01T14:51:10.395Z,11.70
2018-07-01T14:53:38.602Z,11.80
2018-07-01T14:56:06.822Z,11.70
2018-07-01T14:58:35.050Z,11.80
2018-07-01T15:01:03.287Z,11.80
2018-07-01T15:03:31.494Z,11.70
2018-07-01T15:06:04.227Z,11.70
2018-07-01T15:08:32.422Z,11.80
2018-07-01T15:11:00.684Z,11.80
2018-07-01T15:13:28.875Z,11.80
2018-07-01T15:15:57.123Z,11.60
2018-07-01T15:18:25.346Z,11.80
2018-07-01T15:20:53.679Z,12.00
2018-07-01T15:23:21.906Z,11.70
2018-07-01T15:25:50.256Z,11.80
2018-07-01T15:28:18.454Z,11.80
2018-07-01T15:30:46.651Z,11.70
2018-07-01T15:33:15.130Z,11.60
2018-07-01T15:35:43.376Z,11.40
2018-07-01T15:38:11.569Z,11.60
2018-07-01T15:40:39.774Z,11.60
2018-07-01T15:43:07.998Z,11.50
2018-07-01T15:45:36.236Z,11.40
2018-07-01T15:48:04.600Z,11.70
2018-07-01T15:50:32.826Z,12.00
2018-07-01T15:53:01.075Z,11.60
2018-07-01T15:55:29.310Z,11.60
2018-07-01T15:57:57.514Z,11.70
2018-07-01T16:00:25.745Z,11.70
2018-07-01T16:02:54.002Z,11.60
2018-07-01T16:05:22.242Z,11.50
2018-07-01T16:07:50.570Z,11.60
2018-07-01T16:10:18.807Z,11.60
2018-07-01T16:12:47.020Z,11.70
2018-07-01T16:15:15.293Z,11.90
2018-07-01T16:17:43.941Z,11.90
2018-07-01T16:20:12.144Z,11.80
2018-07-01T16:22:40.415Z,11.50
2018-07-01T16:27:18.371Z,11.60
2018-07-01T16:29:46.573Z,11.60
2018-07-01T16:34:42.774Z,11.90
2018-07-01T16:37:10.976Z,11.80
2018-07-01T16:39:39.188Z,11.80
2018-07-01T16:42:07.400Z,11.70
2018-07-01T16:44:35.626Z,11.70
2018-07-01T16:47:03.934Z,12.40
2018-07-01T16:49:32.228Z,13.30
2018-07-01T16:52:00.402Z,13.30
2018-07-01T16:54:28.622Z,13.20
2018-07-01T16:56:56.850Z,12.80
2018-07-01T16:59:25.358Z,12.80
2018-07-01T17:01:53.526Z,12.50
2018-07-01T17:04:21.710Z,12.40
2018-07-01T17:09:17.854Z,12.50
2018-07-01T17:14:14.045Z,12.40
2018-07-01T17:16:42.421Z,12.40
2018-07-01T17:19:10.654Z,12.50
2018-07-01T17:21:38.880Z,12.70
2018-07-01T17:24:07.174Z,12.80
2018-07-01T17:26:35.394Z,13.00
2018-07-01T17:29:03.602Z,13.90
2018-07-01T17:31:37.277Z,15.50
2018-07-01T17:34:05.507Z,17.30
2018-07-01T17:36:33.730Z,19.20
2018-07-01T17:41:29.874Z,21.40
2018-07-01T17:43:58.180Z,22.40
2018-07-01T17:46:26.406Z,23.20
2018-07-01T17:48:54.628Z,24.00
2018-07-01T17:51:22.857Z,24.90
2018-07-01T17:53:54.217Z,25.40
2018-07-01T17:58:51.146Z,26.00
2018-07-01T18:01:19.502Z,26.40
2018-07-01T18:03:47.910Z,26.80
2018-07-01T18:06:16.306Z,27.00
2018-07-01T18:08:44.497Z,27.50
2018-07-01T18:11:12.739Z,27.90
2018-07-01T18:13:40.977Z,28.10
2018-07-01T18:16:09.218Z,28.50
2018-07-01T18:18:37.688Z,28.70
2018-07-01T18:24:02.961Z,29.00
2018-07-01T18:26:02.399Z,29.30
2018-07-01T18:28:41.525Z,29.50
2018-07-01T18:30:58.843Z,29.60
2018-07-01T18:33:27.050Z,29.90
2018-07-01T18:35:55.262Z,30.10
2018-07-01T18:38:23.488Z,30.30
2018-07-01T18:40:53.022Z,30.30
2018-07-01T18:43:20.736Z,30.50
2018-07-01T18:45:48.965Z,30.80
2018-07-01T18:48:17.158Z,31.30
2018-07-01T18:50:45.473Z,31.40
2018-07-01T18:53:13.711Z,31.70
2018-07-01T18:55:41.898Z,32.20
2018-07-01T18:58:10.105Z,32.50
2018-07-01T19:00:38.322Z,32.70
2018-07-01T19:03:06.558Z,33.10
2018-07-01T19:05:34.754Z,33.40
2018-07-01T19:08:03.022Z,33.60
2018-07-01T19:10:31.246Z,33.80
2018-07-01T19:12:59.681Z,34.20
2018-07-01T19:15:27.902Z,34.50
2018-07-01T19:17:56.114Z,34.60
2018-07-01T19:20:24.331Z,34.60
2018-07-01T19:22:52.810Z,34.90
2018-07-01T19:25:21.007Z,35.20
2018-07-01T19:27:49.254Z,35.20
2018-07-01T19:30:17.465Z,35.30
2018-07-01T19:32:45.674Z,35.90
2018-07-01T19:35:14.110Z,36.10
2018-07-01T19:37:42.365Z,36.60
2018-07-01T19:40:10.547Z,36.70
2018-07-01T19:42:38.838Z,37.00
2018-07-01T19:45:06.995Z,37.20
2018-07-01T19:47:35.236Z,37.30
2018-07-01T19:50:03.478Z,37.70
2018-07-01T19:52:31.708Z,38.00
2018-07-01T19:54:59.898Z,38.20
2018-07-01T19:57:28.928Z,38.50
2018-07-01T19:59:57.150Z,38.60
2018-07-01T20:02:25.401Z,39.10
2018-07-01T20:04:53.614Z,39.30
2018-07-01T20:07:21.828Z,39.40
2018-07-01T20:09:50.082Z,39.60
2018-07-01T20:12:18.278Z,39.90
2018-07-01T20:14:46.500Z,39.90
2018-07-01T20:17:14.722Z,40.30
2018-07-01T20:19:43.070Z,40.40
2018-07-01T20:22:11.495Z,40.70
2018-07-01T20:24:39.710Z,40.40
2018-07-01T20:27:07.906Z,41.00
2018-07-01T20:29:36.102Z,40.80
2018-07-01T20:32:04.339Z,41.10
2018-07-01T20:34:32.541Z,41.20
2018-07-01T20:37:00.738Z,41.20
2018-07-01T20:41:56.920Z,41.70
2018-07-01T20:44:25.138Z,41.80
2018-07-01T20:46:53.330Z,41.90
2018-07-01T20:49:21.514Z,42.00
2018-07-01T20:51:49.738Z,42.10
2018-07-01T20:54:17.955Z,42.20
2018-07-01T20:56:46.159Z,42.20
2018-07-01T20:59:14.354Z,42.40
2018-07-01T21:01:42.590Z,42.70
2018-07-01T21:04:10.798Z,42.90
2018-07-01T21:06:38.986Z,42.90
2018-07-01T21:09:08.625Z,43.00
2018-07-01T21:11:37.229Z,43.20
2018-07-01T21:14:05.506Z,43.30
2018-07-01T21:19:01.866Z,43.50
2018-07-01T21:21:30.058Z,43.60
2018-07-01T21:23:58.494Z,43.50
2018-07-01T21:26:26.718Z,43.60
2018-07-01T21:28:55.050Z,43.40
2018-07-01T21:31:23.259Z,43.40
2018-07-01T21:33:51.471Z,43.60
2018-07-01T21:36:19.690Z,43.50
2018-07-01T21:41:15.848Z,44.10
2018-07-01T21:43:44.078Z,44.30
2018-07-01T21:46:12.330Z,44.40
2018-07-01T21:48:40.544Z,44.30
2018-07-01T21:51:08.798Z,44.70
2018-07-01T21:53:37.006Z,44.80
2018-07-01T21:56:05.611Z,44.80
2018-07-01T21:58:33.866Z,44.90
2018-07-01T22:05:59.074Z,45.10
2018-07-01T22:08:27.313Z,45.10
2018-07-01T22:13:09.062Z,45.20
2018-07-01T22:15:48.589Z,45.30
2018-07-01T22:18:16.779Z,45.60
2018-07-01T22:20:45.004Z,45.80
2018-07-01T22:23:13.219Z,46.10
2018-07-01T22:25:41.402Z,46.00
2018-07-01T22:28:09.638Z,46.00
2018-07-01T22:30:37.898Z,45.90
2018-07-01T22:33:06.106Z,46.00
2018-07-01T22:35:34.294Z,46.30
2018-07-01T22:38:02.506Z,46.90
2018-07-01T22:40:30.730Z,46.50
2018-07-01T22:42:58.906Z,46.90
2018-07-01T22:45:27.115Z,47.10
2018-07-01T22:47:55.333Z,47.50
2018-07-01T22:50:23.590Z,47.80
2018-07-01T22:52:51.798Z,47.90
2018-07-01T22:55:20.031Z,48.00
2018-07-01T22:57:48.269Z,48.10
2018-07-01T23:00:16.516Z,48.60
2018-07-01T23:02:58.350Z,48.70
2018-07-01T23:05:26.594Z,49.00
2018-07-01T23:07:54.840Z,49.40
2018-07-01T23:10:24.218Z,49.60
2018-07-01T23:15:21.359Z,50.10
2018-07-01T23:17:49.626Z,50.10
2018-07-01T23:20:17.852Z,50.30
2018-07-01T23:22:46.062Z,50.50
2018-07-01T23:25:14.646Z,50.90
2018-07-01T23:27:43.756Z,50.90
2018-07-01T23:30:11.991Z,51.20
2018-07-01T23:32:40.214Z,51.30
2018-07-01T23:35:08.470Z,51.10
2018-07-01T23:37:36.781Z,51.10
2018-07-01T23:40:05.178Z,51.20
2018-07-01T23:42:33.442Z,51.30
2018-07-01T23:45:01.661Z,51.30
2018-07-01T23:47:29.876Z,51.20
2018-07-01T23:49:58.099Z,51.40
2018-07-01T23:52:26.316Z,51.60
2018-07-01T23:54:54.571Z,51.60
2018-07-01T23:57:22.885Z,51.70
2018-07-01T23:59:51.116Z,51.90
